• Join FlightAware (Why Join?)
  • Login
  • US Flag 
07:14AM EDT


 

Airport Tracker/Info


-or-


 

Live Flight TrackerFlight Track Log ✈ UAL252 ✈ 25-06-2013 ✈ KSAN - KIAH

Flight Track Log - Related Links

Times and Time Zones

All times are in EDT time to prevent confusion due to time zone crossing. See the UAL252 flight status page for this flight to view local times or setup timezone preferences in your user account.

Time Position Orientation Groundspeed Altitude Reporting Facility
EDT Latitude Longitude Course Direction KTS MPH feet Rate Location/Type
06:07PM 32.7436 -117.2347 277° West 161 185 1,700  Level Los Angeles Center
06:08PM 32.7508 -117.3044 277° West 208 239 4,100 2,700 Climbing Los Angeles Center
06:09PM 32.6872 -117.2961 174° South 251 289 7,400 2,820 Climbing Los Angeles Center
06:10PM 32.6494 -117.2233 122° Southeast 282 325 10,000 1,980 Climbing Los Angeles Center
06:11PM 32.6314 -117.1208 102° East 316 364 11,500 1,920 Climbing Los Angeles Center
06:12PM 32.6119 -117.0039 101° East 351 404 14,000 2,520 Climbing Los Angeles Center
06:13PM 32.6217 -116.8631 85° East 362 417 16,800 2,220 Climbing Los Angeles Center
06:14PM 32.6333 -116.7350 84° East 384 442 18,600 1,740 Climbing Los Angeles Center
06:15PM 32.6472 -116.6039 83° East 401 461 20,500 1,740 Climbing Los Angeles Center
06:16PM 32.6600 -116.4703 83° East 410 472 22,200 1,800 Climbing Los Angeles Center
06:17PM 32.6756 -116.3083 83° East 420 483 24,300 1,740 Climbing Los Angeles Center
06:18PM 32.6881 -116.1706 84° East 425 489 25,800 1,440 Climbing Los Angeles Center
06:19PM 32.7014 -116.0300 84° East 432 497 27,300 1,320 Climbing Los Angeles Center
06:21PM 32.7153 -115.8856 83° East 441 507 28,600 1,260 Climbing Los Angeles Center
06:22PM 32.7292 -115.7392 84° East 448 516 29,900 1,260 Climbing Los Angeles Center
06:23PM 32.7442 -115.5592 84° East 457 526 31,300 1,260 Climbing Los Angeles Center
06:24PM 32.7533 -115.4075 86° East 462 532 32,600 1,200 Climbing Los Angeles Center
06:25PM 32.7556 -115.2539 89° East 466 536 33,800 1,260 Climbing Los Angeles Center
06:26PM 32.7611 -115.1006 87° East 465 535 35,300 1,320 Climbing Los Angeles Center
06:27PM 32.7647 -114.9511 88° East 457 526 36,600 780 Climbing Los Angeles Center
06:28PM 32.7692 -114.8022 88° East 453 521 37,000 180 Climbing Los Angeles Center
06:29PM 32.7714 -114.6233 89° East 452 520 37,000 -60 Level Los Angeles Center
06:30PM 32.7725 -114.4733 89° East 453 521 36,900 -60 Descending Los Angeles Center
06:31PM 32.7747 -114.3244 89° East 451 519 36,900  Level Los Angeles Center
06:32PM 32.7772 -114.1764 89° East 450 518 36,900  Level Los Angeles Center
06:33PM 32.7767 -114.0253 90° East 455 524 37,000  Climbing Los Angeles Center
06:34PM 32.7903 -113.8781 84° East 450 518 37,000  Level Los Angeles Center
06:35PM 32.8231 -113.6517 80° East 457 526 37,000  Level Albuquerque Center
06:36PM 32.8375 -113.5531 80° East 452 520 37,000  Level Los Angeles Center
06:37PM 32.8444 -113.5044 80° East 454 522 37,000  Level Albuquerque Center
06:38PM 32.8689 -113.3269 81° East 453 521 37,000  Level Albuquerque Center
06:39PM 32.8900 -113.1797 80° East 451 519 37,000  Level Albuquerque Center
06:40PM 32.9094 -113.0306 81° East 453 521 37,000  Level Albuquerque Center
06:41PM 32.9294 -112.8828 81° East 451 519 37,000  Level Albuquerque Center
06:42PM 32.9486 -112.7347 81° East 451 519 37,000  Level Albuquerque Center
06:43PM 32.9361 -112.5869 96° East 449 517 37,000  Level Albuquerque Center
06:44PM 32.9125 -112.4400 101° East 450 518 37,000  Level Albuquerque Center
06:45PM 32.8897 -112.2925 100° East 452 520 37,000  Level Albuquerque Center
06:46PM 32.8661 -112.1333 100° East 450 518 37,000  Level Albuquerque Center
06:47PM 32.8442 -111.9892 100° East 447 514 37,000  Level Albuquerque Center
06:48PM 32.8214 -111.8425 100° East 453 521 37,000  Level Albuquerque Center
06:49PM 32.7989 -111.6986 101° East 448 516 37,000  Level Albuquerque Center
06:50PM 32.7714 -111.5272 101° East 443 510 37,000  Level Albuquerque Center
06:51PM 32.7481 -111.3828 101° East 445 512 37,000  Level Albuquerque Center
06:52PM 32.7258 -111.2403 100° East 442 509 37,000  Level Albuquerque Center
06:53PM 32.7019 -111.0953 101° East 447 514 37,000  Level Albuquerque Center
06:54PM 32.6778 -110.9517 101° East 446 513 37,000  Level Albuquerque Center
06:55PM 32.6553 -110.8067 100° East 448 516 37,000  Level Albuquerque Center
06:56PM 32.6300 -110.6644 102° East 445 512 37,000  Level Albuquerque Center
06:57PM 32.6022 -110.4919 101° East 445 512 37,000  Level Albuquerque Center
06:58PM 32.5767 -110.3469 102° East 449 517 37,000  Level Albuquerque Center
06:59PM 32.5511 -110.1931 101° East 449 517 37,000  Level Albuquerque Center
07:00PM 32.5247 -110.0494 102° East 450 518 37,000  Level Albuquerque Center
07:01PM 32.5008 -109.9058 101° East 450 518 37,000  Level Albuquerque Center
07:02PM 32.4756 -109.7639 102° East 447 514 37,000  Level Albuquerque Center
07:03PM 32.4486 -109.6186 102° East 453 521 37,000  Level Albuquerque Center
07:04PM 32.4244 -109.4758 101° East 451 519 37,000  Level Albuquerque Center
07:05PM 32.3942 -109.3053 102° East 448 516 37,000  Level Albuquerque Center
07:06PM 32.3686 -109.1631 102° East 447 514 37,000  Level Albuquerque Center
07:07PM 32.3431 -109.0206 102° East 448 516 37,000  Level Albuquerque Center
07:08PM 32.3172 -108.8786 102° East 448 516 37,000  Level Albuquerque Center
07:09PM 32.2908 -108.7361 102° East 449 517 37,000  Level Albuquerque Center
07:10PM 32.2647 -108.5928 102° East 451 519 37,000  Level Albuquerque Center
07:11PM 32.2353 -108.4350 102° East 448 516 37,000  Level Albuquerque Center
07:12PM 32.2089 -108.2894 102° East 453 521 37,000  Level Albuquerque Center
07:13PM 32.1811 -108.1447 103° East 454 522 37,000  Level Albuquerque Center
07:14PM 32.1544 -108.0006 102° East 453 521 37,000  Level Albuquerque Center
07:15PM 32.1342 -107.8258 98° East 452 520 37,000 -60 Level Albuquerque Center
07:17PM 32.1178 -107.6819 98° East 448 516 36,900 -60 Descending Albuquerque Center
07:18PM 32.1017 -107.5383 98° East 446 513 36,900  Level Albuquerque Center
07:19PM 32.0867 -107.3953 97° East 445 512 36,900  Level Albuquerque Center
07:20PM 32.0703 -107.2522 98° East 445 512 36,900  Level Albuquerque Center
07:21PM 32.0536 -107.1097 98° East 444 511 37,000  Climbing Albuquerque Center
07:22PM 32.0342 -106.9369 98° East 446 513 37,000  Level Albuquerque Center
07:23PM 32.0169 -106.7944 98° East 443 510 37,000  Level Albuquerque Center
07:24PM 31.9994 -106.6517 98° East 443 510 37,000 -60 Level Albuquerque Center
07:25PM 31.9822 -106.5097 98° East 441 507 36,900 -60 Descending Albuquerque Center
07:26PM 31.9658 -106.3675 98° East 440 506 36,900  Level Albuquerque Center
07:27PM 31.9547 -106.2225 95° East 446 513 37,000  Climbing Albuquerque Center
07:28PM 31.9578 -106.0567 89° East 438 504 37,000  Level Albuquerque Center
07:29PM 31.9619 -105.9181 88° East 439 505 37,000 -60 Level Albuquerque Center
07:30PM 31.9650 -105.7761 89° East 435 501 36,900 -60 Descending Albuquerque Center
07:31PM 31.9686 -105.6331 88° East 437 503 36,900  Level Albuquerque Center
07:32PM 31.9731 -105.4892 88° East 439 505 37,000  Climbing Albuquerque Center
07:33PM 31.9761 -105.3453 89° East 439 505 37,000  Level Albuquerque Center
07:34PM 31.9803 -105.2025 88° East 436 502 37,000  Level Albuquerque Center
07:35PM 31.9836 -105.0297 89° East 439 505 37,000 -60 Level Albuquerque Center
07:36PM 31.9872 -104.8850 88° East 440 506 36,900  Descending Albuquerque Center
07:37PM 31.9900 -104.7403 89° East 441 507 37,000  Climbing Albuquerque Center
07:38PM 31.9925 -104.5942 89° East 445 512 37,000  Level Albuquerque Center
07:39PM 31.9947 -104.4494 89° East 443 510 37,000  Level Albuquerque Center
07:40PM 31.9972 -104.3050 89° East 442 509 37,000  Level Albuquerque Center
07:41PM 31.9986 -104.1611 89° East 440 506 37,000  Level Albuquerque Center
07:42PM 32.0011 -104.0117 89° East 441 507 37,000  Level Albuquerque Center
07:43PM 32.0031 -103.8669 89° East 441 507 37,000  Level Albuquerque Center
07:44PM 32.0042 -103.7239 89° East 440 506 37,000  Level Albuquerque Center
07:45PM 32.0050 -103.5806 90° East 439 505 37,000  Level Albuquerque Center
07:46PM 32.0072 -103.4097 89° East 437 503 37,000  Level Albuquerque Center
07:47PM 32.0086 -103.2675 89° East 437 503 37,000  Level Albuquerque Center
07:48PM 32.0083 -103.1231 90° East 440 506 37,000  Level Albuquerque Center
07:49PM 32.0092 -102.9903 90° East 440 506 37,000  Level Albuquerque Center
07:50PM 32.0097 -102.8192 90° East 437 503 37,000 -60 Level Albuquerque Center
07:51PM 32.0103 -102.6761 90° East 436 502 36,900 -60 Descending Albuquerque Center
07:52PM 32.0094 -102.5322 90° East 437 503 36,900  Level Albuquerque Center
07:53PM 32.0097 -102.3817 90° East 442 509 37,000  Climbing Albuquerque Center
07:55PM 32.0050 -102.2075 92° East 442 509 37,000  Level Fort Worth Center
07:56PM 31.9706 -102.0661 106° East 442 509 37,000  Level Fort Worth Center
07:57PM 31.9233 -101.9292 112° Southeast 442 509 37,000 -60 Level Fort Worth Center
07:58PM 31.8781 -101.7972 112° Southeast 442 509 36,900 120 Descending Fort Worth Center
07:59PM 31.8325 -101.6606 111° Southeast 442 509 37,300 660 Climbing Fort Worth Center
08:00PM 31.7808 -101.5214 114° Southeast 442 509 38,300 840 Climbing Fort Worth Center
08:01PM 31.7392 -101.3875 110° East 442 509 39,000 300 Climbing Fort Worth Center
08:02PM 31.6914 -101.2489 112° Southeast 447 514 39,000  Level Fort Worth Center
08:03PM 31.6411 -101.1125 113° Southeast 447 514 39,000 -60 Level Fort Worth Center
08:04PM 31.5947 -100.9789 112° Southeast 447 514 38,900 -60 Descending Fort Worth Center
08:05PM 31.5464 -100.8431 113° Southeast 447 514 38,900  Level Fort Worth Center
08:06PM 31.5000 -100.7072 112° Southeast 447 514 39,000  Climbing Fort Worth Center
08:07PM 31.4450 -100.5667 115° Southeast 441 507 38,900  Descending Fort Worth Center
08:08PM 31.3983 -100.4336 112° Southeast 441 507 39,000  Climbing Fort Worth Center
08:09PM 31.3525 -100.3056 113° Southeast 448 516 39,000  Level Houston Center
08:10PM 31.3039 -100.1700 113° Southeast 450 518 39,000  Level Houston Center
08:11PM 31.2544 -100.0336 113° Southeast 453 521 39,000  Level Houston Center
08:12PM 31.2067 -99.8983 112° Southeast 452 520 39,000  Level Houston Center
08:13PM 31.1581 -99.7647 113° Southeast 448 516 39,000 -60 Level Houston Center
08:14PM 31.1092 -99.6306 113° Southeast 448 516 38,900  Descending Houston Center
08:15PM 31.0797 -99.4903 104° East 446 513 39,000  Climbing Houston Center
08:16PM 31.0678 -99.3183 95° East 442 509 39,000  Level Houston Center
08:17PM 31.0586 -99.1739 94° East 446 513 39,000  Level Houston Center
08:18PM 31.0483 -99.0250 95° East 446 513 39,000  Level Houston Center
08:19PM 31.0372 -98.8800 95° East 445 512 39,000 -300 Level Houston Center
08:20PM 31.0269 -98.7347 95° East 445 512 38,400 -840 Descending Houston Center
08:21PM 31.0175 -98.5894 94° East 447 514 37,300 -1,020 Descending Houston Center
08:22PM 31.0053 -98.4417 95° East 453 521 36,300 -1,020 Descending Houston Center
08:23PM 30.9956 -98.2967 94° East 446 513 35,300 -660 Descending Houston Center
08:24PM 30.9842 -98.1542 95° East 439 505 35,000 -180 Descending Houston Center
08:25PM 30.9711 -97.9883 95° East 437 503 35,000  Level Houston Center
08:26PM 30.9600 -97.8475 95° East 435 501 35,000  Level Houston Center
08:27PM 30.9492 -97.7050 95° East 436 502 35,000  Level Houston Center
08:28PM 30.9381 -97.5656 95° East 433 498 35,000  Level Houston Center
08:29PM 30.9264 -97.4250 95° East 434 499 35,000 -60 Level Houston Center
08:30PM 30.9125 -97.2769 96° East 438 504 34,900 -540 Descending Houston Center
08:31PM 30.9025 -97.1189 94° East 444 511 34,000 -1,560 Descending Houston Center
08:32PM 30.8911 -96.9764 95° East 449 517 31,700 -2,220 Descending Houston Center
08:33PM 30.8778 -96.8319 96° East 446 513 29,500 -2,100 Descending Houston Center
08:34PM 30.8658 -96.6944 96° East 428 493 27,400 -2,160 Descending Houston Center
08:35PM 30.8522 -96.5581 97° East 421 484 25,100 -2,520 Descending Houston Center
08:36PM 30.7903 -96.4389 121° Southeast 430 495 22,300 -2,520 Descending Houston Center
08:37PM 30.7147 -96.3086 124° Southeast 411 473 20,000 -2,040 Descending Houston Center
08:39PM 30.6536 -96.2022 124° Southeast 395 455 18,200 -1,800 Descending Houston Center
08:40PM 30.5947 -96.1011 124° Southeast 377 434 16,400 -1,680 Descending Houston Center
08:41PM 30.5422 -96.0133 125° Southeast 361 415 14,800 -1,620 Descending Houston Center
08:42PM 30.4878 -95.9211 124° Southeast 349 402 13,100 -1,380 Descending Houston Center
08:43PM 30.4311 -95.8364 128° Southeast 335 386 12,000 -780 Descending Houston Center
08:44PM 30.3522 -95.7567 139° Southeast 312 359 11,500 -1,080 Descending Houston Center
08:45PM 30.2800 -95.6822 138° Southeast 300 345 9,800 -1,500 Descending Houston Center
08:46PM 30.2286 -95.6275 137° Southeast 297 342 8,500 -1,380 Descending Houston Center
08:47PM 30.1697 -95.5656 138° Southeast 289 333 7,100 -780 Descending Houston Center
08:48PM 30.1117 -95.5039 137° Southeast 284 327 7,000 -60 Descending Houston Center
08:49PM 30.1064 -95.4103 94° East 297 342 7,000 -420 Level Houston Center
08:50PM 30.1064 -95.3183 90° East 288 331 6,200 -1,140 Descending Houston Center
08:51PM 30.1064 -95.2239 90° East 244 281 4,700 -1,380 Descending Houston Center
08:52PM 30.0806 -95.1528 113° Southeast 222 255 3,400 -960 Descending Houston Center
08:53PM 30.0350 -95.1803 208° Southwest 176 203 2,800 -900 Descending Houston Center
08:54PM 30.0000 -95.2111 217° Southwest 176 203 1,600 -1,200 Descending Houston Center